Terminal Aerodrome Forecast
Issued by NWS St Louis, MO

Home | Current Version | Previous Version | Text Only | Print | Product List | Glossary On
Versions: 1 2 3 4 5 6 7 8 9 10 11 12 13 14 15 16 17 18 19 20 21 22 23 24 25 26 27
119
FTUS43 KLSX 211501 AAA
TAFSTL
TAF AMD
KSTL 211501Z 2115/2218 15013KT P6SM VCSH BKN090
     FM211600 16012G20KT P6SM BKN150
     FM220000 16009KT P6SM BKN080
     FM220900 17012KT 5SM -SHRA VCTS BKN035CB
     FM221400 25005KT 6SM -SHRA SCT007 OVC015=

USA.gov is the U.S. government's official web portal to all federal, state and local government web resources and services.